sensor_id;sensor_type;location;lat;lon;timestamp;temperature;humidity
20929;DHT22;21895;47.072;15.132;2022-12-07T00:01:38;2.10;99.90
20929;DHT22;21895;47.072;15.132;2022-12-07T00:04:07;2.10;99.90
20929;DHT22;21895;47.072;15.132;2022-12-07T00:06:37;2.10;99.90
20929;DHT22;21895;47.072;15.132;2022-12-07T00:09:07;2.00;99.90
20929;DHT22;21895;47.072;15.132;2022-12-07T00:11:37;2.00;99.90
20929;DHT22;21895;47.072;15.132;2022-12-07T00:14:06;2.00;99.90
20929;DHT22;21895;47.072;15.132;2022-12-07T00:16:37;2.00;99.90
20929;DHT22;21895;47.072;15.132;2022-12-07T00:19:04;2.00;99.90
20929;DHT22;21895;47.072;15.132;2022-12-07T00:21:32;1.90;99.90
20929;DHT22;21895;47.072;15.132;2022-12-07T00:24:02;1.70;99.90
20929;DHT22;21895;47.072;15.132;2022-12-07T00:26:35;1.60;99.90
20929;DHT22;21895;47.072;15.132;2022-12-07T00:29:05;1.70;99.90
20929;DHT22;21895;47.072;15.132;2022-12-07T00:31:36;1.60;99.90
20929;DHT22;21895;47.072;15.132;2022-12-07T00:34:11;1.60;99.90
20929;DHT22;21895;47.072;15.132;2022-12-07T00:36:42;1.60;99.90
20929;DHT22;21895;47.072;15.132;2022-12-07T00:39:09;1.50;99.90
20929;DHT22;21895;47.072;15.132;2022-12-07T00:41:35;1.50;99.90
20929;DHT22;21895;47.072;15.132;2022-12-07T00:44:03;1.50;99.90
20929;DHT22;21895;47.072;15.132;2022-12-07T00:46:29;1.50;99.90
20929;DHT22;21895;47.072;15.132;2022-12-07T00:48:56;1.60;99.90
20929;DHT22;21895;47.072;15.132;2022-12-07T00:51:24;1.60;99.90
20929;DHT22;21895;47.072;15.132;2022-12-07T00:53:52;1.60;99.90
20929;DHT22;21895;47.072;15.132;2022-12-07T00:56:24;1.50;99.90
20929;DHT22;21895;47.072;15.132;2022-12-07T00:59:01;1.50;99.90
20929;DHT22;21895;47.072;15.132;2022-12-07T01:01:31;1.40;99.90
20929;DHT22;21895;47.072;15.132;2022-12-07T01:03:59;1.50;99.90
20929;DHT22;21895;47.072;15.132;2022-12-07T01:06:29;1.50;99.90
20929;DHT22;21895;47.072;15.132;2022-12-07T01:08:56;1.40;99.90
20929;DHT22;21895;47.072;15.132;2022-12-07T01:11:26;1.30;99.90
20929;DHT22;21895;47.072;15.132;2022-12-07T01:13:56;1.30;99.90
20929;DHT22;21895;47.072;15.132;2022-12-07T01:16:25;1.30;99.90
20929;DHT22;21895;47.072;15.132;2022-12-07T01:18:55;1.50;99.90
20929;DHT22;21895;47.072;15.132;2022-12-07T01:21:25;1.40;99.90
20929;DHT22;21895;47.072;15.132;2022-12-07T01:23:59;1.40;99.90
20929;DHT22;21895;47.072;15.132;2022-12-07T01:26:26;1.30;99.90
20929;DHT22;21895;47.072;15.132;2022-12-07T01:28:53;1.20;99.90
20929;DHT22;21895;47.072;15.132;2022-12-07T01:31:25;1.20;99.90
20929;DHT22;21895;47.072;15.132;2022-12-07T01:33:55;1.10;99.90
20929;DHT22;21895;47.072;15.132;2022-12-07T01:36:32;1.00;99.90
20929;DHT22;21895;47.072;15.132;2022-12-07T01:39:04;1.10;99.90
20929;DHT22;21895;47.072;15.132;2022-12-07T01:41:34;1.10;99.90
20929;DHT22;21895;47.072;15.132;2022-12-07T01:44:14;1.10;99.90
20929;DHT22;21895;47.072;15.132;2022-12-07T01:47:06;1.20;99.90
20929;DHT22;21895;47.072;15.132;2022-12-07T01:49:44;1.10;99.90
20929;DHT22;21895;47.072;15.132;2022-12-07T01:52:34;1.10;99.90
20929;DHT22;21895;47.072;15.132;2022-12-07T01:55:07;1.10;99.90
20929;DHT22;21895;47.072;15.132;2022-12-07T01:57:40;1.00;99.90
20929;DHT22;21895;47.072;15.132;2022-12-07T02:00:10;1.00;99.90
20929;DHT22;21895;47.072;15.132;2022-12-07T02:03:22;1.00;99.90
20929;DHT22;21895;47.072;15.132;2022-12-07T02:05:53;0.90;99.90
20929;DHT22;21895;47.072;15.132;2022-12-07T02:08:21;0.80;99.90
20929;DHT22;21895;47.072;15.132;2022-12-07T02:10:48;0.80;99.90
20929;DHT22;21895;47.072;15.132;2022-12-07T02:13:19;0.70;99.90
20929;DHT22;21895;47.072;15.132;2022-12-07T02:16:05;0.80;99.90
20929;DHT22;21895;47.072;15.132;2022-12-07T02:21:22;0.70;99.90
20929;DHT22;21895;47.072;15.132;2022-12-07T02:26:43;0.70;99.90
20929;DHT22;21895;47.072;15.132;2022-12-07T02:29:46;0.70;99.90
20929;DHT22;21895;47.072;15.132;2022-12-07T02:32:56;0.70;99.90
20929;DHT22;21895;47.072;15.132;2022-12-07T02:36:02;0.60;99.90
20929;DHT22;21895;47.072;15.132;2022-12-07T02:46:04;0.40;99.90
20929;DHT22;21895;47.072;15.132;2022-12-07T02:48:34;0.30;99.90
20929;DHT22;21895;47.072;15.132;2022-12-07T02:51:01;0.30;99.90
20929;DHT22;21895;47.072;15.132;2022-12-07T02:53:39;0.30;99.90
20929;DHT22;21895;47.072;15.132;2022-12-07T02:59:10;0.30;99.90
20929;DHT22;21895;47.072;15.132;2022-12-07T03:03:12;0.10;99.90
20929;DHT22;21895;47.072;15.132;2022-12-07T03:06:43;0.20;99.90
20929;DHT22;21895;47.072;15.132;2022-12-07T03:09:30;0.10;99.90
20929;DHT22;21895;47.072;15.132;2022-12-07T03:12:30;0.10;99.90
20929;DHT22;21895;47.072;15.132;2022-12-07T03:15:10;0.00;99.90
20929;DHT22;21895;47.072;15.132;2022-12-07T03:17:44;0.00;99.90
20929;DHT22;21895;47.072;15.132;2022-12-07T03:20:14;0.00;99.90
20929;DHT22;21895;47.072;15.132;2022-12-07T03:22:47;0.00;99.90
20929;DHT22;21895;47.072;15.132;2022-12-07T03:25:15;-0.10;99.90
20929;DHT22;21895;47.072;15.132;2022-12-07T03:27:51;-0.30;99.90
20929;DHT22;21895;47.072;15.132;2022-12-07T03:30:32;-0.50;99.90
20929;DHT22;21895;47.072;15.132;2022-12-07T03:33:16;-0.40;99.90
20929;DHT22;21895;47.072;15.132;2022-12-07T03:35:53;-0.40;99.90
20929;DHT22;21895;47.072;15.132;2022-12-07T03:38:50;-0.30;99.90
20929;DHT22;21895;47.072;15.132;2022-12-07T03:41:33;-0.40;99.90
20929;DHT22;21895;47.072;15.132;2022-12-07T03:44:09;-0.50;99.90
20929;DHT22;21895;47.072;15.132;2022-12-07T03:47:03;-0.50;99.90
20929;DHT22;21895;47.072;15.132;2022-12-07T03:49:47;-0.60;99.90
20929;DHT22;21895;47.072;15.132;2022-12-07T03:52:31;-0.60;99.90
20929;DHT22;21895;47.072;15.132;2022-12-07T03:57:26;-0.70;99.90
20929;DHT22;21895;47.072;15.132;2022-12-07T03:59:57;-0.80;99.90
20929;DHT22;21895;47.072;15.132;2022-12-07T04:02:26;-0.70;99.90
20929;DHT22;21895;47.072;15.132;2022-12-07T04:04:55;-0.60;99.90
20929;DHT22;21895;47.072;15.132;2022-12-07T04:07:22;-0.60;99.90
20929;DHT22;21895;47.072;15.132;2022-12-07T04:09:49;-0.70;99.90
20929;DHT22;21895;47.072;15.132;2022-12-07T04:12:15;-0.90;99.90
20929;DHT22;21895;47.072;15.132;2022-12-07T04:14:42;-0.80;99.90
20929;DHT22;21895;47.072;15.132;2022-12-07T04:17:08;-0.70;99.90
20929;DHT22;21895;47.072;15.132;2022-12-07T04:19:35;-0.80;99.90
20929;DHT22;21895;47.072;15.132;2022-12-07T04:22:03;-0.80;99.90
20929;DHT22;21895;47.072;15.132;2022-12-07T04:24:30;-0.70;99.90
20929;DHT22;21895;47.072;15.132;2022-12-07T04:26:57;-0.90;99.90
20929;DHT22;21895;47.072;15.132;2022-12-07T04:29:24;-1.00;99.90
20929;DHT22;21895;47.072;15.132;2022-12-07T04:31:51;-1.00;99.90
20929;DHT22;21895;47.072;15.132;2022-12-07T04:34:19;-1.00;99.90
20929;DHT22;21895;47.072;15.132;2022-12-07T04:36:46;-0.90;99.90
20929;DHT22;21895;47.072;15.132;2022-12-07T04:39:20;-0.90;99.90
20929;DHT22;21895;47.072;15.132;2022-12-07T04:41:49;-1.00;99.90
20929;DHT22;21895;47.072;15.132;2022-12-07T04:44:16;-1.10;99.90
20929;DHT22;21895;47.072;15.132;2022-12-07T04:46:44;-1.20;99.90
20929;DHT22;21895;47.072;15.132;2022-12-07T04:49:13;-1.20;99.90
20929;DHT22;21895;47.072;15.132;2022-12-07T04:51:40;-1.30;99.90
20929;DHT22;21895;47.072;15.132;2022-12-07T04:54:07;-1.20;99.90
20929;DHT22;21895;47.072;15.132;2022-12-07T04:56:34;-1.30;99.90
20929;DHT22;21895;47.072;15.132;2022-12-07T04:59:02;-1.20;99.90
20929;DHT22;21895;47.072;15.132;2022-12-07T05:01:29;-1.20;99.90
20929;DHT22;21895;47.072;15.132;2022-12-07T05:03:56;-1.00;99.90
20929;DHT22;21895;47.072;15.132;2022-12-07T05:06:22;-1.00;99.90
20929;DHT22;21895;47.072;15.132;2022-12-07T05:08:49;-1.00;99.90
20929;DHT22;21895;47.072;15.132;2022-12-07T05:11:16;-1.20;99.90
20929;DHT22;21895;47.072;15.132;2022-12-07T05:14:05;-1.40;99.90
20929;DHT22;21895;47.072;15.132;2022-12-07T05:16:33;-1.40;99.90
20929;DHT22;21895;47.072;15.132;2022-12-07T05:19:00;-1.30;99.90
20929;DHT22;21895;47.072;15.132;2022-12-07T05:21:27;-1.30;99.90
20929;DHT22;21895;47.072;15.132;2022-12-07T05:23:54;-1.20;99.90
20929;DHT22;21895;47.072;15.132;2022-12-07T05:26:20;-1.10;99.90
20929;DHT22;21895;47.072;15.132;2022-12-07T05:28:51;-1.20;99.90
20929;DHT22;21895;47.072;15.132;2022-12-07T05:31:18;-1.10;99.90
20929;DHT22;21895;47.072;15.132;2022-12-07T05:33:45;-1.20;99.90
20929;DHT22;21895;47.072;15.132;2022-12-07T05:36:11;-1.20;99.90
20929;DHT22;21895;47.072;15.132;2022-12-07T05:38:38;-1.30;99.90
20929;DHT22;21895;47.072;15.132;2022-12-07T05:41:06;-1.30;99.90
20929;DHT22;21895;47.072;15.132;2022-12-07T05:44:38;-1.40;99.90
20929;DHT22;21895;47.072;15.132;2022-12-07T05:47:05;-1.30;99.90
20929;DHT22;21895;47.072;15.132;2022-12-07T05:49:31;-1.40;99.90
20929;DHT22;21895;47.072;15.132;2022-12-07T05:51:58;-1.40;99.90
20929;DHT22;21895;47.072;15.132;2022-12-07T05:54:25;-1.40;99.90
20929;DHT22;21895;47.072;15.132;2022-12-07T05:56:51;-1.50;99.90
20929;DHT22;21895;47.072;15.132;2022-12-07T05:59:18;-1.40;99.90
20929;DHT22;21895;47.072;15.132;2022-12-07T06:01:53;-1.20;99.90
20929;DHT22;21895;47.072;15.132;2022-12-07T06:04:31;-1.10;99.90
20929;DHT22;21895;47.072;15.132;2022-12-07T06:07:00;-1.30;99.90
20929;DHT22;21895;47.072;15.132;2022-12-07T06:09:27;-1.50;99.90
20929;DHT22;21895;47.072;15.132;2022-12-07T06:11:55;-1.40;99.90
20929;DHT22;21895;47.072;15.132;2022-12-07T06:14:40;-1.50;99.90
20929;DHT22;21895;47.072;15.132;2022-12-07T06:17:07;-1.50;99.90
20929;DHT22;21895;47.072;15.132;2022-12-07T06:19:34;-1.50;99.90
20929;DHT22;21895;47.072;15.132;2022-12-07T06:22:01;-1.40;99.90
20929;DHT22;21895;47.072;15.132;2022-12-07T06:24:28;-1.60;99.90
20929;DHT22;21895;47.072;15.132;2022-12-07T06:26:55;-1.60;99.90
20929;DHT22;21895;47.072;15.132;2022-12-07T06:29:21;-1.50;99.90
20929;DHT22;21895;47.072;15.132;2022-12-07T06:31:48;-1.50;99.90
20929;DHT22;21895;47.072;15.132;2022-12-07T06:34:19;-1.50;99.90
20929;DHT22;21895;47.072;15.132;2022-12-07T06:36:49;-1.60;99.90
20929;DHT22;21895;47.072;15.132;2022-12-07T06:39:25;-1.60;99.90
20929;DHT22;21895;47.072;15.132;2022-12-07T06:41:53;-1.70;99.90
20929;DHT22;21895;47.072;15.132;2022-12-07T06:44:20;-1.70;99.90
20929;DHT22;21895;47.072;15.132;2022-12-07T06:46:48;-1.60;99.90
20929;DHT22;21895;47.072;15.132;2022-12-07T06:49:15;-1.60;99.90
20929;DHT22;21895;47.072;15.132;2022-12-07T06:51:42;-1.60;99.90
20929;DHT22;21895;47.072;15.132;2022-12-07T06:54:10;-1.40;99.90
20929;DHT22;21895;47.072;15.132;2022-12-07T06:56:39;-1.40;99.90
20929;DHT22;21895;47.072;15.132;2022-12-07T06:59:06;-1.30;99.90
20929;DHT22;21895;47.072;15.132;2022-12-07T07:01:34;-1.10;99.90
20929;DHT22;21895;47.072;15.132;2022-12-07T07:04:01;-0.90;99.90
20929;DHT22;21895;47.072;15.132;2022-12-07T07:06:28;-0.80;99.90
20929;DHT22;21895;47.072;15.132;2022-12-07T07:08:54;-0.80;99.90
20929;DHT22;21895;47.072;15.132;2022-12-07T07:11:21;-0.70;99.90
20929;DHT22;21895;47.072;15.132;2022-12-07T07:13:47;-0.60;99.90
20929;DHT22;21895;47.072;15.132;2022-12-07T07:16:14;-0.30;99.90
20929;DHT22;21895;47.072;15.132;2022-12-07T07:18:40;-0.20;99.90
20929;DHT22;21895;47.072;15.132;2022-12-07T07:21:07;0.00;99.90
20929;DHT22;21895;47.072;15.132;2022-12-07T07:23:33;0.10;99.90
20929;DHT22;21895;47.072;15.132;2022-12-07T07:26:00;0.30;99.90
20929;DHT22;21895;47.072;15.132;2022-12-07T07:28:26;0.50;99.90
20929;DHT22;21895;47.072;15.132;2022-12-07T07:30:53;0.60;99.90
20929;DHT22;21895;47.072;15.132;2022-12-07T07:33:19;0.80;99.90
20929;DHT22;21895;47.072;15.132;2022-12-07T07:35:46;1.00;99.90
20929;DHT22;21895;47.072;15.132;2022-12-07T07:38:12;1.10;99.90
20929;DHT22;21895;47.072;15.132;2022-12-07T07:40:39;1.20;99.90
20929;DHT22;21895;47.072;15.132;2022-12-07T07:43:06;1.30;99.90
20929;DHT22;21895;47.072;15.132;2022-12-07T07:45:32;1.40;99.90
20929;DHT22;21895;47.072;15.132;2022-12-07T07:47:59;1.40;99.90
20929;DHT22;21895;47.072;15.132;2022-12-07T07:50:25;1.50;99.90
20929;DHT22;21895;47.072;15.132;2022-12-07T07:52:51;1.50;99.90
20929;DHT22;21895;47.072;15.132;2022-12-07T07:55:18;1.40;99.90
20929;DHT22;21895;47.072;15.132;2022-12-07T07:57:45;1.40;99.90
20929;DHT22;21895;47.072;15.132;2022-12-07T08:00:20;1.40;99.90
20929;DHT22;21895;47.072;15.132;2022-12-07T08:02:47;1.50;99.90
20929;DHT22;21895;47.072;15.132;2022-12-07T08:05:14;1.60;99.90
20929;DHT22;21895;47.072;15.132;2022-12-07T08:07:40;1.70;99.90
20929;DHT22;21895;47.072;15.132;2022-12-07T08:10:09;1.80;99.90
20929;DHT22;21895;47.072;15.132;2022-12-07T08:12:38;2.00;99.90
20929;DHT22;21895;47.072;15.132;2022-12-07T08:15:37;2.10;99.90
20929;DHT22;21895;47.072;15.132;2022-12-07T08:18:05;2.20;99.90
20929;DHT22;21895;47.072;15.132;2022-12-07T08:20:32;2.30;99.90
20929;DHT22;21895;47.072;15.132;2022-12-07T08:22:59;2.40;99.90
20929;DHT22;21895;47.072;15.132;2022-12-07T08:25:26;2.50;99.90
20929;DHT22;21895;47.072;15.132;2022-12-07T08:27:54;2.70;99.90
20929;DHT22;21895;47.072;15.132;2022-12-07T08:30:20;2.80;99.90
20929;DHT22;21895;47.072;15.132;2022-12-07T08:32:47;2.90;99.90
20929;DHT22;21895;47.072;15.132;2022-12-07T08:35:15;2.90;99.90
20929;DHT22;21895;47.072;15.132;2022-12-07T08:37:42;3.00;99.90
20929;DHT22;21895;47.072;15.132;2022-12-07T08:40:09;3.10;99.90
20929;DHT22;21895;47.072;15.132;2022-12-07T08:42:42;3.20;99.90
20929;DHT22;21895;47.072;15.132;2022-12-07T08:45:12;3.30;99.90
20929;DHT22;21895;47.072;15.132;2022-12-07T08:50:44;3.40;99.90
20929;DHT22;21895;47.072;15.132;2022-12-07T08:53:15;3.50;99.90
20929;DHT22;21895;47.072;15.132;2022-12-07T08:55:46;3.50;99.90
20929;DHT22;21895;47.072;15.132;2022-12-07T08:58:14;3.60;99.90
20929;DHT22;21895;47.072;15.132;2022-12-07T09:00:41;3.70;99.90
20929;DHT22;21895;47.072;15.132;2022-12-07T09:03:07;3.70;99.90
20929;DHT22;21895;47.072;15.132;2022-12-07T09:05:34;3.80;99.90
20929;DHT22;21895;47.072;15.132;2022-12-07T09:08:01;4.00;99.90
20929;DHT22;21895;47.072;15.132;2022-12-07T09:10:29;4.10;99.90
20929;DHT22;21895;47.072;15.132;2022-12-07T09:12:55;4.20;99.90
20929;DHT22;21895;47.072;15.132;2022-12-07T09:15:29;4.30;99.90
20929;DHT22;21895;47.072;15.132;2022-12-07T09:17:57;4.40;99.90
20929;DHT22;21895;47.072;15.132;2022-12-07T09:20:23;4.50;99.90
20929;DHT22;21895;47.072;15.132;2022-12-07T09:22:53;4.50;99.90
20929;DHT22;21895;47.072;15.132;2022-12-07T09:25:20;4.40;99.90
20929;DHT22;21895;47.072;15.132;2022-12-07T09:27:46;4.50;99.90
20929;DHT22;21895;47.072;15.132;2022-12-07T09:30:13;4.60;99.90
20929;DHT22;21895;47.072;15.132;2022-12-07T09:32:39;4.50;99.90
20929;DHT22;21895;47.072;15.132;2022-12-07T09:35:06;4.60;99.90
20929;DHT22;21895;47.072;15.132;2022-12-07T09:37:33;4.60;99.90
20929;DHT22;21895;47.072;15.132;2022-12-07T09:40:02;4.50;99.90
20929;DHT22;21895;47.072;15.132;2022-12-07T09:42:36;4.60;99.90
20929;DHT22;21895;47.072;15.132;2022-12-07T09:45:39;4.70;99.90
20929;DHT22;21895;47.072;15.132;2022-12-07T09:48:22;4.60;99.90
20929;DHT22;21895;47.072;15.132;2022-12-07T09:50:57;4.60;99.90
20929;DHT22;21895;47.072;15.132;2022-12-07T09:53:34;4.70;99.90
20929;DHT22;21895;47.072;15.132;2022-12-07T09:56:04;4.70;99.90
20929;DHT22;21895;47.072;15.132;2022-12-07T09:58:32;4.80;99.90
20929;DHT22;21895;47.072;15.132;2022-12-07T10:01:05;4.80;99.90
20929;DHT22;21895;47.072;15.132;2022-12-07T10:03:39;4.80;99.90
20929;DHT22;21895;47.072;15.132;2022-12-07T10:06:11;4.70;99.90
20929;DHT22;21895;47.072;15.132;2022-12-07T10:08:38;4.80;99.90
20929;DHT22;21895;47.072;15.132;2022-12-07T10:11:07;4.70;99.90
20929;DHT22;21895;47.072;15.132;2022-12-07T10:13:39;4.80;99.90
20929;DHT22;21895;47.072;15.132;2022-12-07T10:19:25;4.90;99.90
20929;DHT22;21895;47.072;15.132;2022-12-07T10:22:16;5.20;99.90
20929;DHT22;21895;47.072;15.132;2022-12-07T10:24:46;5.10;99.90
20929;DHT22;21895;47.072;15.132;2022-12-07T10:27:30;5.10;99.90
20929;DHT22;21895;47.072;15.132;2022-12-07T10:29:58;5.20;99.90
20929;DHT22;21895;47.072;15.132;2022-12-07T10:32:34;5.20;99.90
20929;DHT22;21895;47.072;15.132;2022-12-07T10:35:22;5.30;99.90
20929;DHT22;21895;47.072;15.132;2022-12-07T10:37:58;5.40;99.90
20929;DHT22;21895;47.072;15.132;2022-12-07T10:40:35;5.50;99.90
20929;DHT22;21895;47.072;15.132;2022-12-07T10:43:18;5.50;99.90
20929;DHT22;21895;47.072;15.132;2022-12-07T10:49:48;5.60;99.90
20929;DHT22;21895;47.072;15.132;2022-12-07T10:54:14;5.60;99.90
20929;DHT22;21895;47.072;15.132;2022-12-07T10:59:02;5.60;99.90
20929;DHT22;21895;47.072;15.132;2022-12-07T11:11:13;6.10;99.90
20929;DHT22;21895;47.072;15.132;2022-12-07T11:14:28;6.60;99.90
20929;DHT22;21895;47.072;15.132;2022-12-07T11:25:31;6.40;99.90
20929;DHT22;21895;47.072;15.132;2022-12-07T11:28:41;6.20;99.90
20929;DHT22;21895;47.072;15.132;2022-12-07T11:35:34;6.10;99.90
20929;DHT22;21895;47.072;15.132;2022-12-07T11:38:26;6.00;99.90
20929;DHT22;21895;47.072;15.132;2022-12-07T11:41:21;5.90;99.90
20929;DHT22;21895;47.072;15.132;2022-12-07T11:48:41;6.10;99.90
20929;DHT22;21895;47.072;15.132;2022-12-07T11:51:12;6.20;99.90
20929;DHT22;21895;47.072;15.132;2022-12-07T11:53:52;6.20;99.90
20929;DHT22;21895;47.072;15.132;2022-12-07T11:56:27;6.30;99.90
20929;DHT22;21895;47.072;15.132;2022-12-07T11:59:13;6.40;99.90
20929;DHT22;21895;47.072;15.132;2022-12-07T12:02:23;6.60;99.90
20929;DHT22;21895;47.072;15.132;2022-12-07T12:05:55;6.60;99.90
20929;DHT22;21895;47.072;15.132;2022-12-07T12:08:30;6.60;99.90
20929;DHT22;21895;47.072;15.132;2022-12-07T12:13:16;6.70;99.90
20929;DHT22;21895;47.072;15.132;2022-12-07T12:19:32;6.50;99.90
20929;DHT22;21895;47.072;15.132;2022-12-07T12:22:12;6.90;99.90
20929;DHT22;21895;47.072;15.132;2022-12-07T12:24:45;6.80;99.90
20929;DHT22;21895;47.072;15.132;2022-12-07T12:27:36;6.70;99.90
20929;DHT22;21895;47.072;15.132;2022-12-07T12:30:35;6.60;99.90
20929;DHT22;21895;47.072;15.132;2022-12-07T12:33:11;6.60;99.90
20929;DHT22;21895;47.072;15.132;2022-12-07T12:35:41;6.60;99.90
20929;DHT22;21895;47.072;15.132;2022-12-07T12:39:38;6.70;99.90
20929;DHT22;21895;47.072;15.132;2022-12-07T12:42:18;7.10;99.90
20929;DHT22;21895;47.072;15.132;2022-12-07T12:45:25;7.00;99.90
20929;DHT22;21895;47.072;15.132;2022-12-07T12:48:00;6.90;99.90
20929;DHT22;21895;47.072;15.132;2022-12-07T12:50:38;6.80;99.90
20929;DHT22;21895;47.072;15.132;2022-12-07T12:53:22;6.70;99.90
20929;DHT22;21895;47.072;15.132;2022-12-07T12:56:23;6.70;99.90
20929;DHT22;21895;47.072;15.132;2022-12-07T13:00:28;6.70;99.90
20929;DHT22;21895;47.072;15.132;2022-12-07T13:02:56;6.50;99.90
20929;DHT22;21895;47.072;15.132;2022-12-07T13:05:27;6.50;99.90
20929;DHT22;21895;47.072;15.132;2022-12-07T13:08:39;6.40;99.90
20929;DHT22;21895;47.072;15.132;2022-12-07T13:11:33;6.10;99.90
20929;DHT22;21895;47.072;15.132;2022-12-07T13:14:41;6.10;99.90
20929;DHT22;21895;47.072;15.132;2022-12-07T13:20:03;5.90;99.90
20929;DHT22;21895;47.072;15.132;2022-12-07T13:22:42;5.70;99.90
20929;DHT22;21895;47.072;15.132;2022-12-07T13:25:38;5.60;99.90
20929;DHT22;21895;47.072;15.132;2022-12-07T13:28:17;5.40;99.90
20929;DHT22;21895;47.072;15.132;2022-12-07T13:32:27;5.40;99.90
20929;DHT22;21895;47.072;15.132;2022-12-07T13:34:55;5.70;99.90
20929;DHT22;21895;47.072;15.132;2022-12-07T13:37:30;5.70;99.90
20929;DHT22;21895;47.072;15.132;2022-12-07T13:40:21;5.40;99.90
20929;DHT22;21895;47.072;15.132;2022-12-07T13:42:57;5.20;99.90
20929;DHT22;21895;47.072;15.132;2022-12-07T13:45:33;5.10;99.90
20929;DHT22;21895;47.072;15.132;2022-12-07T13:49:17;5.10;99.90
20929;DHT22;21895;47.072;15.132;2022-12-07T13:51:47;4.90;99.90
20929;DHT22;21895;47.072;15.132;2022-12-07T13:54:14;4.80;99.90
20929;DHT22;21895;47.072;15.132;2022-12-07T13:56:41;4.80;99.90
20929;DHT22;21895;47.072;15.132;2022-12-07T13:59:20;4.90;99.90
20929;DHT22;21895;47.072;15.132;2022-12-07T14:01:50;4.70;99.90
20929;DHT22;21895;47.072;15.132;2022-12-07T14:04:37;4.60;99.90
20929;DHT22;21895;47.072;15.132;2022-12-07T14:07:25;4.70;99.90
20929;DHT22;21895;47.072;15.132;2022-12-07T14:10:00;4.70;99.90
20929;DHT22;21895;47.072;15.132;2022-12-07T14:12:30;4.70;99.90
20929;DHT22;21895;47.072;15.132;2022-12-07T14:14:59;4.60;99.90
20929;DHT22;21895;47.072;15.132;2022-12-07T14:17:28;4.50;99.90
20929;DHT22;21895;47.072;15.132;2022-12-07T14:20:00;4.50;99.90
20929;DHT22;21895;47.072;15.132;2022-12-07T14:22:38;4.40;99.90
20929;DHT22;21895;47.072;15.132;2022-12-07T14:25:20;4.30;99.90
20929;DHT22;21895;47.072;15.132;2022-12-07T14:27:54;4.30;99.90
20929;DHT22;21895;47.072;15.132;2022-12-07T14:30:32;4.30;99.90
20929;DHT22;21895;47.072;15.132;2022-12-07T14:33:02;4.30;99.90
20929;DHT22;21895;47.072;15.132;2022-12-07T14:35:31;4.40;99.90
20929;DHT22;21895;47.072;15.132;2022-12-07T14:38:01;4.40;99.90
20929;DHT22;21895;47.072;15.132;2022-12-07T14:40:28;4.40;99.90
20929;DHT22;21895;47.072;15.132;2022-12-07T14:43:09;4.50;99.90
20929;DHT22;21895;47.072;15.132;2022-12-07T14:45:39;4.40;99.90
20929;DHT22;21895;47.072;15.132;2022-12-07T14:48:07;4.30;99.90
20929;DHT22;21895;47.072;15.132;2022-12-07T14:51:10;4.30;99.90
20929;DHT22;21895;47.072;15.132;2022-12-07T14:54:15;4.10;99.90
20929;DHT22;21895;47.072;15.132;2022-12-07T14:56:45;4.00;99.90
20929;DHT22;21895;47.072;15.132;2022-12-07T14:59:15;4.00;99.90
20929;DHT22;21895;47.072;15.132;2022-12-07T15:01:43;4.00;99.90
20929;DHT22;21895;47.072;15.132;2022-12-07T15:04:09;4.00;99.90
20929;DHT22;21895;47.072;15.132;2022-12-07T15:06:36;4.10;99.90
20929;DHT22;21895;47.072;15.132;2022-12-07T15:09:03;4.10;99.90
20929;DHT22;21895;47.072;15.132;2022-12-07T15:11:30;4.10;99.90
20929;DHT22;21895;47.072;15.132;2022-12-07T15:13:56;4.00;99.90
20929;DHT22;21895;47.072;15.132;2022-12-07T15:16:36;4.00;99.90
20929;DHT22;21895;47.072;15.132;2022-12-07T15:19:33;4.00;99.90
20929;DHT22;21895;47.072;15.132;2022-12-07T15:22:00;4.00;99.90
20929;DHT22;21895;47.072;15.132;2022-12-07T15:24:27;3.90;99.90
20929;DHT22;21895;47.072;15.132;2022-12-07T15:26:53;3.90;99.90
20929;DHT22;21895;47.072;15.132;2022-12-07T15:29:20;3.90;99.90
20929;DHT22;21895;47.072;15.132;2022-12-07T15:31:52;3.90;99.90
20929;DHT22;21895;47.072;15.132;2022-12-07T15:34:24;3.80;99.90
20929;DHT22;21895;47.072;15.132;2022-12-07T15:36:57;3.90;99.90
20929;DHT22;21895;47.072;15.132;2022-12-07T15:39:24;3.90;99.90
20929;DHT22;21895;47.072;15.132;2022-12-07T15:41:50;3.90;99.90
20929;DHT22;21895;47.072;15.132;2022-12-07T15:44:17;3.90;99.90
20929;DHT22;21895;47.072;15.132;2022-12-07T15:47:01;3.80;99.90
20929;DHT22;21895;47.072;15.132;2022-12-07T15:49:30;3.80;99.90
20929;DHT22;21895;47.072;15.132;2022-12-07T15:51:56;3.70;99.90
20929;DHT22;21895;47.072;15.132;2022-12-07T15:54:25;3.60;99.90
20929;DHT22;21895;47.072;15.132;2022-12-07T15:56:53;3.60;99.90
20929;DHT22;21895;47.072;15.132;2022-12-07T15:59:21;3.70;99.90
20929;DHT22;21895;47.072;15.132;2022-12-07T16:01:50;3.70;99.90
20929;DHT22;21895;47.072;15.132;2022-12-07T16:04:17;3.70;99.90
20929;DHT22;21895;47.072;15.132;2022-12-07T16:06:44;3.70;99.90
20929;DHT22;21895;47.072;15.132;2022-12-07T16:09:10;3.80;99.90
20929;DHT22;21895;47.072;15.132;2022-12-07T16:11:37;3.80;99.90
20929;DHT22;21895;47.072;15.132;2022-12-07T16:14:04;3.80;99.90
20929;DHT22;21895;47.072;15.132;2022-12-07T16:16:31;3.70;99.90
20929;DHT22;21895;47.072;15.132;2022-12-07T16:18:57;3.70;99.90
20929;DHT22;21895;47.072;15.132;2022-12-07T16:21:24;3.80;99.90
20929;DHT22;21895;47.072;15.132;2022-12-07T16:23:51;3.70;99.90
20929;DHT22;21895;47.072;15.132;2022-12-07T16:26:20;3.70;99.90
20929;DHT22;21895;47.072;15.132;2022-12-07T16:28:51;3.60;99.90
20929;DHT22;21895;47.072;15.132;2022-12-07T16:31:21;3.70;99.90
20929;DHT22;21895;47.072;15.132;2022-12-07T16:33:53;3.70;99.90
20929;DHT22;21895;47.072;15.132;2022-12-07T16:36:21;3.70;99.90
20929;DHT22;21895;47.072;15.132;2022-12-07T16:39:28;3.80;99.90
20929;DHT22;21895;47.072;15.132;2022-12-07T16:41:57;3.80;99.90
20929;DHT22;21895;47.072;15.132;2022-12-07T16:44:23;3.80;99.90
20929;DHT22;21895;47.072;15.132;2022-12-07T16:46:50;3.80;99.90
20929;DHT22;21895;47.072;15.132;2022-12-07T16:49:17;3.80;99.90
20929;DHT22;21895;47.072;15.132;2022-12-07T16:51:44;3.90;99.90
20929;DHT22;21895;47.072;15.132;2022-12-07T16:54:13;3.90;99.90
20929;DHT22;21895;47.072;15.132;2022-12-07T16:56:39;3.90;99.90
20929;DHT22;21895;47.072;15.132;2022-12-07T16:59:06;3.80;99.90
20929;DHT22;21895;47.072;15.132;2022-12-07T17:01:34;3.90;99.90
20929;DHT22;21895;47.072;15.132;2022-12-07T17:04:01;4.00;99.90
20929;DHT22;21895;47.072;15.132;2022-12-07T17:06:30;4.00;99.90
20929;DHT22;21895;47.072;15.132;2022-12-07T17:08:57;3.90;99.90
20929;DHT22;21895;47.072;15.132;2022-12-07T17:11:32;4.00;99.90
20929;DHT22;21895;47.072;15.132;2022-12-07T17:13:59;4.30;99.90
20929;DHT22;21895;47.072;15.132;2022-12-07T17:16:44;4.30;99.90
20929;DHT22;21895;47.072;15.132;2022-12-07T17:19:14;4.10;99.90
20929;DHT22;21895;47.072;15.132;2022-12-07T17:21:44;4.00;99.90